createdAt,value
2018-02-17T00:00:30.657Z,20.20
2018-02-17T00:02:58.206Z,19.43
2018-02-17T00:05:25.742Z,19.70
2018-02-17T00:07:53.295Z,19.53
2018-02-17T00:10:21.072Z,19.57
2018-02-17T00:12:48.927Z,18.33
2018-02-17T00:15:16.490Z,19.73
2018-02-17T00:17:44.021Z,18.80
2018-02-17T00:20:11.829Z,19.83
2018-02-17T00:22:39.695Z,19.30
2018-02-17T00:25:07.239Z,19.20
2018-02-17T00:27:34.800Z,20.47
2018-02-17T00:30:02.362Z,19.03
2018-02-17T00:32:29.940Z,19.57
2018-02-17T00:34:57.810Z,20.10
2018-02-17T00:37:25.394Z,21.40
2018-02-17T00:39:52.918Z,20.30
2018-02-17T00:42:20.455Z,19.40
2018-02-17T00:44:48.005Z,19.07
2018-02-17T00:47:15.538Z,20.20
2018-02-17T00:49:43.060Z,18.97
2018-02-17T00:52:10.628Z,20.50
2018-02-17T00:54:38.139Z,20.50
2018-02-17T00:57:05.984Z,19.83
2018-02-17T00:59:33.556Z,21.17
2018-02-17T01:02:01.105Z,20.20
2018-02-17T01:04:28.962Z,20.40
2018-02-17T01:06:56.517Z,20.37
2018-02-17T01:09:24.112Z,19.40
2018-02-17T01:11:51.651Z,20.17
2018-02-17T01:14:19.280Z,19.07
2018-02-17T01:16:46.842Z,19.73
2018-02-17T01:19:14.646Z,20.43
2018-02-17T01:21:42.268Z,19.83
2018-02-17T01:24:09.808Z,21.00
2018-02-17T01:26:37.338Z,22.10
2018-02-17T01:29:04.901Z,22.90
2018-02-17T01:31:32.761Z,20.77
2018-02-17T01:34:00.637Z,21.10
2018-02-17T01:36:28.226Z,21.87
2018-02-17T01:38:55.774Z,23.70
2018-02-17T01:41:23.615Z,21.27
2018-02-17T01:43:51.185Z,20.70
2018-02-17T01:46:18.726Z,21.10
2018-02-17T01:48:46.318Z,21.90
2018-02-17T01:51:13.870Z,22.50
2018-02-17T01:53:41.441Z,21.50
2018-02-17T01:56:09.001Z,21.80
2018-02-17T01:58:36.649Z,21.77
2018-02-17T02:01:04.179Z,21.70
2018-02-17T02:03:32.095Z,21.53
2018-02-17T02:05:59.648Z,21.30
2018-02-17T02:08:27.442Z,20.60
2018-02-17T02:10:54.966Z,22.33
2018-02-17T02:13:22.562Z,21.63
2018-02-17T02:15:50.321Z,21.33
2018-02-17T02:18:18.163Z,23.30
2018-02-17T02:20:45.722Z,21.07
2018-02-17T02:23:13.246Z,22.43
2018-02-17T02:25:40.794Z,21.37
2018-02-17T02:28:08.379Z,21.03
2018-02-17T02:30:35.907Z,21.47
2018-02-17T02:33:03.433Z,20.27
2018-02-17T02:35:31.220Z,21.17
2018-02-17T02:37:58.740Z,22.30
2018-02-17T02:40:26.264Z,21.67
2018-02-17T02:42:54.187Z,21.93
2018-02-17T02:45:21.700Z,20.67
2018-02-17T02:47:49.214Z,22.23
2018-02-17T02:50:16.853Z,21.87
2018-02-17T02:52:44.368Z,20.00
2018-02-17T02:55:11.936Z,22.73
2018-02-17T02:57:39.455Z,21.80
2018-02-17T03:00:06.975Z,22.40
2018-02-17T03:02:34.877Z,19.93
2018-02-17T03:05:02.429Z,21.67
2018-02-17T03:07:30.297Z,21.47
2018-02-17T03:09:57.828Z,19.67
2018-02-17T03:12:25.356Z,21.27
2018-02-17T03:14:52.922Z,21.53
2018-02-17T03:17:20.487Z,19.97
2018-02-17T03:19:48.061Z,20.60
2018-02-17T03:22:15.578Z,21.80
2018-02-17T03:24:43.432Z,21.83
2018-02-17T03:27:11.202Z,21.47
2018-02-17T03:29:38.889Z,21.57
2018-02-17T03:32:06.469Z,20.80
2018-02-17T03:34:33.998Z,20.63
2018-02-17T03:37:01.550Z,20.13
2018-02-17T03:39:29.095Z,21.90
2018-02-17T03:41:56.628Z,20.67
2018-02-17T03:44:25.183Z,21.97
2018-02-17T03:46:52.715Z,20.73
2018-02-17T03:49:20.248Z,20.93
2018-02-17T03:51:48.142Z,22.87
2018-02-17T03:54:15.902Z,20.60
2018-02-17T03:56:43.455Z,21.87
2018-02-17T03:59:10.980Z,20.73
2018-02-17T04:01:38.582Z,22.20
2018-02-17T04:04:06.122Z,20.20
2018-02-17T04:06:33.650Z,20.70
2018-02-17T04:09:01.195Z,21.20
2018-02-17T04:11:28.729Z,20.73
2018-02-17T04:13:56.587Z,20.80
2018-02-17T04:16:24.212Z,22.10
2018-02-17T04:18:51.838Z,21.40
2018-02-17T04:21:19.378Z,22.17
2018-02-17T04:23:47.239Z,21.63
2018-02-17T04:26:14.785Z,21.60
2018-02-17T04:28:42.310Z,20.97
2018-02-17T04:31:09.865Z,23.40
2018-02-17T04:33:37.393Z,23.43
2018-02-17T04:36:05.245Z,21.93
2018-02-17T04:38:32.812Z,22.50
2018-02-17T04:41:05.878Z,20.97
2018-02-17T04:46:39.632Z,21.67
2018-02-17T04:49:12.935Z,22.10
2018-02-17T04:51:44.120Z,22.13
2018-02-17T04:57:32.536Z,22.60
2018-02-17T05:00:04.087Z,22.60
2018-02-17T05:02:51.341Z,22.20
2018-02-17T05:05:31.700Z,22.07
2018-02-17T05:08:19.938Z,23.37
2018-02-17T05:10:47.510Z,22.00
2018-02-17T05:13:15.036Z,21.60
2018-02-17T05:19:01.145Z,21.87
2018-02-17T05:21:31.302Z,20.50
2018-02-17T05:24:03.272Z,21.40
2018-02-17T05:26:32.723Z,23.27
2018-02-17T05:29:05.204Z,21.50
2018-02-17T05:31:33.279Z,20.57
2018-02-17T05:34:05.667Z,20.90
2018-02-17T05:36:33.221Z,21.83
2018-02-17T05:39:01.514Z,23.57
2018-02-17T05:41:29.062Z,21.73
2018-02-17T05:43:56.627Z,21.80
2018-02-17T05:46:26.492Z,21.63
2018-02-17T05:48:54.302Z,21.67
2018-02-17T05:51:21.864Z,22.37
2018-02-17T05:53:49.420Z,21.33
2018-02-17T05:56:16.950Z,21.50
2018-02-17T05:58:44.748Z,22.83
2018-02-17T06:01:12.306Z,20.73
2018-02-17T06:03:39.953Z,20.63
2018-02-17T06:06:07.518Z,20.20
2018-02-17T06:08:35.050Z,21.90
2018-02-17T06:11:02.573Z,20.60
2018-02-17T06:13:30.372Z,21.63
2018-02-17T06:15:58.182Z,21.20
2018-02-17T06:18:26.050Z,22.60
2018-02-17T06:20:53.588Z,20.30
2018-02-17T06:23:21.140Z,22.27
2018-02-17T06:25:49.627Z,21.33
2018-02-17T06:28:17.418Z,20.50
2018-02-17T06:30:44.996Z,21.77
2018-02-17T06:33:12.554Z,21.90
2018-02-17T06:35:40.088Z,19.47
2018-02-17T06:38:07.628Z,21.87
2018-02-17T06:40:35.162Z,20.70
2018-02-17T06:43:02.714Z,21.90
2018-02-17T06:45:30.285Z,21.93
2018-02-17T06:47:58.106Z,21.37
2018-02-17T06:50:25.704Z,23.00
2018-02-17T06:52:53.538Z,20.90
2018-02-17T06:55:21.404Z,21.30
2018-02-17T06:57:48.929Z,20.70
2018-02-17T07:00:16.450Z,22.70
2018-02-17T07:02:44.018Z,20.77
2018-02-17T07:05:11.549Z,22.63
2018-02-17T07:07:39.119Z,22.27
2018-02-17T07:10:06.644Z,21.67
2018-02-17T07:12:34.534Z,20.87
2018-02-17T07:15:02.403Z,20.63
2018-02-17T07:17:29.930Z,21.43
2018-02-17T07:19:57.953Z,20.90
2018-02-17T07:22:25.512Z,21.20
2018-02-17T07:24:53.714Z,21.13
2018-02-17T07:27:21.292Z,21.63
2018-02-17T07:29:48.803Z,19.93
2018-02-17T07:32:16.329Z,20.67
2018-02-17T07:34:43.885Z,21.17
2018-02-17T07:37:11.527Z,20.70
2018-02-17T07:39:39.023Z,20.10
2018-02-17T07:42:06.575Z,21.90
2018-02-17T07:44:34.148Z,22.70
2018-02-17T07:47:01.677Z,21.43
2018-02-17T07:49:29.264Z,20.73
2018-02-17T07:51:57.037Z,21.20
2018-02-17T07:54:24.984Z,20.27
2018-02-17T07:56:52.609Z,22.40
2018-02-17T07:59:20.132Z,20.50
2018-02-17T08:01:48.009Z,21.17
2018-02-17T08:04:15.545Z,19.90
2018-02-17T08:06:43.092Z,20.70
2018-02-17T08:09:10.672Z,21.50
2018-02-17T08:11:38.231Z,21.80
2018-02-17T08:14:05.799Z,20.90
2018-02-17T08:16:33.344Z,21.40
2018-02-17T08:19:00.910Z,22.30
2018-02-17T08:21:28.439Z,22.00
2018-02-17T08:23:56.303Z,21.40
2018-02-17T08:26:23.967Z,20.80
2018-02-17T08:28:51.575Z,20.40
2018-02-17T08:31:19.133Z,21.40
2018-02-17T08:33:46.911Z,21.47
2018-02-17T08:36:14.457Z,20.93
2018-02-17T08:38:41.966Z,20.77
2018-02-17T08:41:10.085Z,22.37
2018-02-17T08:43:37.637Z,21.47
2018-02-17T08:46:05.238Z,19.20
2018-02-17T08:48:32.783Z,22.33
2018-02-17T08:51:00.336Z,20.90
2018-02-17T08:53:27.903Z,21.00
2018-02-17T08:55:55.772Z,20.00
2018-02-17T08:58:23.314Z,20.80
2018-02-17T09:00:50.912Z,22.20
2018-02-17T09:03:18.435Z,19.87
2018-02-17T09:05:45.989Z,20.60
2018-02-17T09:08:13.792Z,20.90
2018-02-17T09:10:47.445Z,20.43
2018-02-17T09:13:14.975Z,19.83
2018-02-17T09:15:42.568Z,21.10
2018-02-17T09:18:10.398Z,20.83
2018-02-17T09:20:37.978Z,21.40
2018-02-17T09:23:05.616Z,19.97
2018-02-17T09:25:33.476Z,20.07
2018-02-17T09:28:01.051Z,19.00
2018-02-17T09:30:28.694Z,18.90
2018-02-17T09:32:56.265Z,19.53
2018-02-17T09:35:23.874Z,19.67
2018-02-17T09:37:51.674Z,20.23
2018-02-17T09:40:19.229Z,20.57
2018-02-17T09:42:46.771Z,19.60
2018-02-17T09:45:14.349Z,18.90
2018-02-17T09:47:41.888Z,19.60
2018-02-17T09:50:09.787Z,18.77
2018-02-17T09:52:37.719Z,19.97
2018-02-17T09:55:05.320Z,19.07
2018-02-17T09:57:32.978Z,18.90
2018-02-17T10:00:00.950Z,18.93
2018-02-17T10:02:28.622Z,19.77
2018-02-17T10:04:56.150Z,19.43
2018-02-17T10:07:23.716Z,17.30
2018-02-17T10:09:51.358Z,19.60
2018-02-17T10:12:18.991Z,18.70
2018-02-17T10:14:46.565Z,17.23
2018-02-17T10:17:14.122Z,20.30
2018-02-17T10:19:41.662Z,22.13
2018-02-17T10:22:09.536Z,19.00
2018-02-17T10:24:37.201Z,19.33
2018-02-17T10:27:04.735Z,19.93
2018-02-17T10:29:32.339Z,20.03
2018-02-17T10:31:59.881Z,19.63
2018-02-17T10:34:27.447Z,19.80
2018-02-17T10:36:55.283Z,20.80
2018-02-17T10:39:22.827Z,20.50
2018-02-17T10:41:50.717Z,20.83
2018-02-17T10:44:18.315Z,20.60
2018-02-17T10:46:45.894Z,20.13
2018-02-17T10:49:13.521Z,20.07
2018-02-17T10:51:41.143Z,20.80
2018-02-17T10:54:08.680Z,19.50
2018-02-17T10:56:36.237Z,20.33
2018-02-17T10:59:03.794Z,20.93
2018-02-17T11:01:31.425Z,19.63
2018-02-17T11:03:58.965Z,19.00
2018-02-17T11:06:26.479Z,18.50
2018-02-17T11:08:54.529Z,19.20
2018-02-17T11:11:22.112Z,19.50
2018-02-17T11:13:49.718Z,19.50
2018-02-17T11:16:17.283Z,18.93
2018-02-17T11:18:44.838Z,20.13
2018-02-17T11:21:12.415Z,18.73
2018-02-17T11:23:39.955Z,18.60
2018-02-17T11:26:07.555Z,20.47
2018-02-17T11:28:35.099Z,19.57
2018-02-17T11:31:02.648Z,18.67
2018-02-17T11:33:30.188Z,20.63
2018-02-17T11:35:57.721Z,19.53
2018-02-17T11:38:25.370Z,19.53
2018-02-17T11:40:52.917Z,19.07
2018-02-17T11:43:20.503Z,20.03
2018-02-17T11:45:48.084Z,19.67
2018-02-17T11:48:15.635Z,19.80
2018-02-17T11:50:43.206Z,19.90
2018-02-17T11:53:10.806Z,19.30
2018-02-17T11:55:38.672Z,18.70
2018-02-17T11:58:06.634Z,18.37
2018-02-17T12:00:34.612Z,19.60
2018-02-17T12:03:02.381Z,20.63
2018-02-17T12:05:30.200Z,20.10
2018-02-17T12:07:58.018Z,20.97
2018-02-17T12:10:25.573Z,18.47
2018-02-17T12:12:53.989Z,20.13
2018-02-17T12:15:21.558Z,18.87
2018-02-17T12:17:49.313Z,19.77
2018-02-17T12:20:18.034Z,19.67
2018-02-17T12:22:45.613Z,19.87
2018-02-17T12:25:13.219Z,17.50
2018-02-17T12:27:41.551Z,14.83
2018-02-17T12:30:09.120Z,14.07
2018-02-17T12:32:36.684Z,15.60
2018-02-17T12:35:04.228Z,14.87
2018-02-17T12:37:31.788Z,13.30
2018-02-17T12:39:59.316Z,14.17
2018-02-17T12:42:26.846Z,13.87
2018-02-17T12:44:54.396Z,12.57
2018-02-17T12:47:21.929Z,12.63
2018-02-17T12:49:49.516Z,13.07
2018-02-17T12:52:17.083Z,12.95
2018-02-17T12:54:44.602Z,12.70
2018-02-17T12:57:12.160Z,12.47
2018-02-17T12:59:39.781Z,13.60
2018-02-17T13:02:07.617Z,14.27
2018-02-17T13:04:35.209Z,14.77
2018-02-17T13:07:02.788Z,15.73
2018-02-17T13:09:30.356Z,15.00
2018-02-17T13:11:57.910Z,14.70
2018-02-17T13:14:25.485Z,14.60
2018-02-17T13:16:53.075Z,14.47
2018-02-17T13:19:20.977Z,14.90
2018-02-17T13:21:48.558Z,14.90
2018-02-17T13:24:16.155Z,13.40
2018-02-17T13:26:43.711Z,13.63
2018-02-17T13:29:11.628Z,13.17
2018-02-17T13:31:39.580Z,12.90
2018-02-17T13:34:07.176Z,13.97
2018-02-17T13:36:34.717Z,14.53
2018-02-17T13:39:02.471Z,15.90
2018-02-17T13:41:29.997Z,13.83
2018-02-17T13:43:57.658Z,13.10
2018-02-17T13:46:25.458Z,14.77
2018-02-17T13:48:53.003Z,14.53
2018-02-17T13:51:20.543Z,13.73
2018-02-17T13:53:48.099Z,14.80
2018-02-17T13:56:15.654Z,15.30
2018-02-17T13:58:43.255Z,13.83
2018-02-17T14:01:11.122Z,14.60
2018-02-17T14:03:38.676Z,12.93
2018-02-17T14:06:06.479Z,12.83
2018-02-17T14:08:34.353Z,12.70
2018-02-17T14:11:01.899Z,12.20
2018-02-17T14:13:29.432Z,14.73
2018-02-17T14:15:57.134Z,14.00
2018-02-17T14:18:24.671Z,14.30
2018-02-17T14:20:52.250Z,13.87
2018-02-17T14:23:19.788Z,14.27
2018-02-17T14:25:47.305Z,14.00
2018-02-17T14:28:14.815Z,15.17
2018-02-17T14:30:42.375Z,14.50
2018-02-17T14:33:09.929Z,14.33
2018-02-17T14:35:37.453Z,15.40
2018-02-17T14:38:05.009Z,15.63
2018-02-17T14:40:32.541Z,14.97
2018-02-17T14:43:00.094Z,16.67
2018-02-17T14:45:27.724Z,16.00
2018-02-17T14:47:55.597Z,15.10
2018-02-17T14:50:23.458Z,15.40
2018-02-17T14:52:51.012Z,15.17
2018-02-17T14:55:18.562Z,14.97
2018-02-17T14:57:46.142Z,15.33
2018-02-17T15:00:13.667Z,14.27
2018-02-17T15:02:41.187Z,13.73
2018-02-17T15:05:08.777Z,13.50
2018-02-17T15:07:36.306Z,14.00
2018-02-17T15:10:03.867Z,13.77
2018-02-17T15:12:31.425Z,13.47
2018-02-17T15:14:58.971Z,12.40
2018-02-17T15:17:26.495Z,12.63
2018-02-17T15:19:54.049Z,12.90
2018-02-17T15:22:21.851Z,12.60
2018-02-17T15:24:49.402Z,12.50
2018-02-17T15:27:16.954Z,12.23
2018-02-17T15:29:44.475Z,11.83
2018-02-17T15:32:11.994Z,11.70
2018-02-17T15:34:39.553Z,11.23
2018-02-17T15:37:07.092Z,11.23
2018-02-17T15:39:34.620Z,12.77
2018-02-17T15:42:02.185Z,10.80
2018-02-17T15:44:29.701Z,11.77
2018-02-17T15:46:57.256Z,11.20
2018-02-17T15:49:24.811Z,10.53
2018-02-17T15:51:52.437Z,10.93
2018-02-17T15:54:19.997Z,10.10
2018-02-17T15:56:47.539Z,10.73
2018-02-17T15:59:15.055Z,10.40
2018-02-17T16:01:42.634Z,10.63
2018-02-17T16:04:10.170Z,10.93
2018-02-17T16:06:37.810Z,11.30
2018-02-17T16:09:05.365Z,10.30
2018-02-17T16:11:33.197Z,10.90
2018-02-17T16:14:00.751Z,10.63
2018-02-17T16:16:28.275Z,12.50
2018-02-17T16:18:56.062Z,11.00
2018-02-17T16:21:23.929Z,11.57
2018-02-17T16:23:52.706Z,13.40
2018-02-17T16:26:20.266Z,12.00
2018-02-17T16:28:47.777Z,11.53
2018-02-17T16:31:15.599Z,11.30
2018-02-17T16:33:43.465Z,11.63
2018-02-17T16:36:11.233Z,12.23
2018-02-17T16:38:38.845Z,12.80
2018-02-17T16:41:06.672Z,13.17
2018-02-17T16:43:34.221Z,13.63
2018-02-17T16:46:01.777Z,13.57
2018-02-17T16:48:29.354Z,13.40
2018-02-17T16:50:56.936Z,13.00
2018-02-17T16:53:24.470Z,13.00
2018-02-17T16:55:51.998Z,14.13
2018-02-17T16:58:19.558Z,13.30
2018-02-17T17:00:47.157Z,14.40
2018-02-17T17:03:15.017Z,13.27
2018-02-17T17:05:42.582Z,12.43
2018-02-17T17:08:10.443Z,13.20
2018-02-17T17:10:38.054Z,13.20
2018-02-17T17:13:05.605Z,12.73
2018-02-17T17:15:33.434Z,12.13
2018-02-17T17:18:01.080Z,13.90
2018-02-17T17:20:28.618Z,13.07
2018-02-17T17:22:56.146Z,12.93
2018-02-17T17:25:23.735Z,14.33
2018-02-17T17:27:51.544Z,13.57
2018-02-17T17:30:19.080Z,13.73
2018-02-17T17:32:46.970Z,14.20
2018-02-17T17:35:14.547Z,14.80
2018-02-17T17:37:42.095Z,13.93
2018-02-17T17:40:09.860Z,14.00
2018-02-17T17:42:37.775Z,13.90
2018-02-17T17:45:05.346Z,14.30
2018-02-17T17:47:32.879Z,13.83
2018-02-17T17:50:00.718Z,14.60
2018-02-17T17:52:28.586Z,14.43
2018-02-17T17:54:56.147Z,13.03
2018-02-17T17:57:23.722Z,13.57
2018-02-17T17:59:51.264Z,15.50
2018-02-17T18:02:18.801Z,14.10
2018-02-17T18:04:46.373Z,13.50
2018-02-17T18:07:13.936Z,13.40
2018-02-17T18:09:41.502Z,13.80
2018-02-17T18:12:09.017Z,14.23
2018-02-17T18:14:36.563Z,13.50
2018-02-17T18:17:04.082Z,13.27
2018-02-17T18:19:31.955Z,13.37
2018-02-17T18:21:59.534Z,14.33
2018-02-17T18:24:27.876Z,14.13
2018-02-17T18:26:55.427Z,13.43
2018-02-17T18:29:23.054Z,13.27
2018-02-17T18:31:50.591Z,12.80
2018-02-17T18:34:18.157Z,13.47
2018-02-17T18:36:45.687Z,12.93
2018-02-17T18:39:13.831Z,12.60
2018-02-17T18:41:41.639Z,13.57
2018-02-17T18:44:09.200Z,13.07
2018-02-17T18:46:36.764Z,13.80
2018-02-17T18:49:04.278Z,13.00
2018-02-17T18:51:31.818Z,12.90
2018-02-17T18:53:59.437Z,13.67
2018-02-17T18:56:26.953Z,12.10
2018-02-17T18:58:54.533Z,13.73
2018-02-17T19:01:22.355Z,13.30
2018-02-17T19:03:49.884Z,13.07
2018-02-17T19:06:17.442Z,14.07
2018-02-17T19:08:45.022Z,14.13
2018-02-17T19:11:12.887Z,13.17
2018-02-17T19:13:40.418Z,12.10
2018-02-17T19:16:08.547Z,13.30
2018-02-17T19:18:36.106Z,13.70
2018-02-17T19:21:03.647Z,13.57
2018-02-17T19:23:31.533Z,13.40
2018-02-17T19:25:59.099Z,12.83
2018-02-17T19:28:26.754Z,14.40
2018-02-17T19:30:54.417Z,14.40
2018-02-17T19:33:21.995Z,14.33
2018-02-17T19:35:49.922Z,14.03
2018-02-17T19:38:17.543Z,13.70
2018-02-17T19:40:45.247Z,13.40
2018-02-17T19:43:12.782Z,14.60
2018-02-17T19:45:40.382Z,13.43
2018-02-17T19:48:07.953Z,14.93
2018-02-17T19:50:35.526Z,14.87
2018-02-17T19:53:03.084Z,15.70
2018-02-17T19:55:30.770Z,13.30
2018-02-17T19:57:59.827Z,15.13
2018-02-17T20:00:27.360Z,15.30
2018-02-17T20:02:54.884Z,14.77
2018-02-17T20:05:22.695Z,15.30
2018-02-17T20:07:50.214Z,13.83
2018-02-17T20:10:17.970Z,14.17
2018-02-17T20:12:45.522Z,15.00
2018-02-17T20:15:13.037Z,14.17
2018-02-17T20:17:40.611Z,13.17
2018-02-17T20:20:08.215Z,13.90
2018-02-17T20:22:35.731Z,12.23
2018-02-17T20:25:03.272Z,13.10
2018-02-17T20:27:31.866Z,12.70
2018-02-17T20:29:59.431Z,13.57
2018-02-17T20:32:27.002Z,14.73
2018-02-17T20:34:54.552Z,13.97
2018-02-17T20:37:22.316Z,14.13
2018-02-17T20:39:49.885Z,14.00
2018-02-17T20:44:53.047Z,14.00
2018-02-17T20:47:20.661Z,13.93
2018-02-17T20:49:48.515Z,14.17
2018-02-17T20:52:16.080Z,14.00
2018-02-17T20:54:43.951Z,14.20
2018-02-17T20:57:11.563Z,14.67
2018-02-17T20:59:39.144Z,12.50
2018-02-17T21:02:06.679Z,12.77
2018-02-17T21:04:34.495Z,12.20
2018-02-17T21:07:02.043Z,12.40
2018-02-17T21:09:29.924Z,12.17
2018-02-17T21:11:57.463Z,12.30
2018-02-17T21:14:25.007Z,12.40
2018-02-17T21:16:52.548Z,12.83
2018-02-17T21:19:20.132Z,13.07
2018-02-17T21:21:47.685Z,12.93
2018-02-17T21:24:15.212Z,13.23
2018-02-17T21:26:42.795Z,13.57
2018-02-17T21:29:10.855Z,14.27
2018-02-17T21:31:38.531Z,13.40
2018-02-17T21:34:06.313Z,14.10
2018-02-17T21:36:34.317Z,14.37
2018-02-17T21:39:02.206Z,16.27
2018-02-17T21:41:31.221Z,13.30
2018-02-17T21:44:02.220Z,13.73
2018-02-17T21:46:30.328Z,13.60
2018-02-17T21:48:59.177Z,13.47
2018-02-17T21:51:26.849Z,14.27
2018-02-17T21:53:55.742Z,14.00
2018-02-17T21:56:23.485Z,13.43
2018-02-17T21:58:51.777Z,13.60
2018-02-17T22:01:19.315Z,13.93
2018-02-17T22:03:47.390Z,13.30
2018-02-17T22:06:15.111Z,13.80
2018-02-17T22:08:43.138Z,13.33
2018-02-17T22:11:10.705Z,13.97
2018-02-17T22:13:38.319Z,13.20
2018-02-17T22:16:05.838Z,12.93
2018-02-17T22:18:34.039Z,11.90
2018-02-17T22:21:01.991Z,12.00
2018-02-17T22:23:29.544Z,12.70
2018-02-17T22:25:57.623Z,13.23
2018-02-17T22:28:25.292Z,12.70
2018-02-17T22:30:53.093Z,12.87
2018-02-17T22:33:20.828Z,12.40
2018-02-17T22:35:48.851Z,13.80
2018-02-17T22:38:16.559Z,12.63
2018-02-17T22:40:44.135Z,11.90
2018-02-17T22:43:12.108Z,12.00
2018-02-17T22:45:39.653Z,13.30
2018-02-17T22:48:08.137Z,12.53
2018-02-17T22:50:35.943Z,12.17
2018-02-17T22:53:03.726Z,13.10
2018-02-17T22:55:31.287Z,13.07
2018-02-17T22:57:58.923Z,12.60
2018-02-17T23:00:30.287Z,12.50
2018-02-17T23:02:57.802Z,12.30
2018-02-17T23:05:25.359Z,14.10
2018-02-17T23:07:52.907Z,13.43
2018-02-17T23:10:20.700Z,13.40
2018-02-17T23:12:48.251Z,14.00
2018-02-17T23:15:15.847Z,14.03
2018-02-17T23:17:43.663Z,14.33
2018-02-17T23:20:11.232Z,14.00
2018-02-17T23:22:39.176Z,14.63
2018-02-17T23:25:12.396Z,14.47
2018-02-17T23:27:43.502Z,14.30
2018-02-17T23:30:12.897Z,16.00
2018-02-17T23:32:40.507Z,15.87
2018-02-17T23:35:08.146Z,15.57
2018-02-17T23:37:35.690Z,14.67
2018-02-17T23:40:03.247Z,15.20
2018-02-17T23:42:31.664Z,15.70
2018-02-17T23:44:59.241Z,16.67
2018-02-17T23:47:26.795Z,15.87
2018-02-17T23:49:54.392Z,16.27
2018-02-17T23:52:21.903Z,14.87
2018-02-17T23:54:49.472Z,14.90
2018-02-17T23:57:16.987Z,15.40
2018-02-17T23:59:44.542Z,15.77
